createdAt,value
2022-08-25T00:00:26.686Z,24.80
2022-08-25T00:03:35.883Z,24.80
2022-08-25T00:06:43.123Z,24.70
2022-08-25T00:09:48.449Z,24.70
2022-08-25T00:12:53.461Z,24.70
2022-08-25T00:15:59.851Z,24.60
2022-08-25T00:19:11.719Z,24.60
2022-08-25T00:22:16.703Z,24.50
2022-08-25T00:25:21.906Z,24.50
2022-08-25T00:28:27.145Z,24.50
2022-08-25T00:31:38.836Z,24.40
2022-08-25T00:34:46.989Z,24.30
2022-08-25T00:37:52.306Z,24.30
2022-08-25T00:41:08.623Z,24.20
2022-08-25T00:44:18.941Z,24.20
2022-08-25T00:47:24.086Z,24.20
2022-08-25T00:50:34.825Z,24.10
2022-08-25T00:53:41.474Z,24.00
2022-08-25T00:56:47.723Z,24.00
2022-08-25T00:59:52.926Z,24.00
2022-08-25T01:02:58.709Z,23.90
2022-08-25T01:06:07.957Z,23.90
2022-08-25T01:09:13.851Z,23.80
2022-08-25T01:12:19.084Z,23.80
2022-08-25T01:15:24.358Z,23.70
2022-08-25T01:18:30.023Z,23.70
2022-08-25T01:21:42.517Z,23.60
2022-08-25T01:24:54.637Z,23.60
2022-08-25T01:27:59.803Z,23.50
2022-08-25T01:31:05.142Z,23.50
2022-08-25T01:34:29.713Z,23.50
2022-08-25T01:37:38.298Z,23.40
2022-08-25T01:40:45.157Z,23.40
2022-08-25T01:43:50.390Z,23.30
2022-08-25T01:46:56.217Z,23.30
2022-08-25T01:50:01.226Z,23.30
2022-08-25T01:53:15.466Z,23.30
2022-08-25T01:56:20.932Z,23.20
2022-08-25T01:59:26.444Z,23.20
2022-08-25T02:02:31.750Z,23.20
2022-08-25T02:05:37.955Z,23.10
2022-08-25T02:08:46.723Z,23.10
2022-08-25T02:11:52.328Z,23.10
2022-08-25T02:14:57.283Z,23.00
2022-08-25T02:18:03.018Z,23.00
2022-08-25T02:21:08.286Z,22.90
2022-08-25T02:24:15.937Z,22.90
2022-08-25T02:27:20.905Z,22.90
2022-08-25T02:30:26.245Z,22.90
2022-08-25T02:33:31.427Z,22.80
2022-08-25T02:36:37.394Z,22.80
2022-08-25T02:39:45.025Z,22.70
2022-08-25T02:42:50.398Z,22.70
2022-08-25T02:45:56.534Z,22.70
2022-08-25T02:49:02.225Z,22.70
2022-08-25T02:52:07.198Z,22.60
2022-08-25T02:55:15.622Z,22.60
2022-08-25T02:58:20.573Z,22.50
2022-08-25T03:01:28.706Z,22.50
2022-08-25T03:04:34.234Z,22.50
2022-08-25T03:07:40.177Z,22.50
2022-08-25T03:10:47.821Z,22.40
2022-08-25T03:13:56.689Z,22.40
2022-08-25T03:17:01.674Z,22.40
2022-08-25T03:20:08.926Z,22.30
2022-08-25T03:23:14.254Z,22.30
2022-08-25T03:26:34.426Z,22.30
2022-08-25T03:29:39.438Z,22.20
2022-08-25T03:32:44.789Z,22.20
2022-08-25T03:35:49.750Z,22.20
2022-08-25T03:38:55.091Z,22.20
2022-08-25T03:42:02.611Z,22.10
2022-08-25T03:45:08.666Z,22.10
2022-08-25T03:48:14.298Z,22.10
2022-08-25T03:51:23.697Z,22.10
2022-08-25T03:54:28.926Z,22.00
2022-08-25T03:57:36.774Z,22.00
2022-08-25T04:00:42.228Z,21.90
2022-08-25T04:03:47.586Z,22.00
2022-08-25T04:06:53.023Z,21.90
2022-08-25T04:09:58.427Z,21.90
2022-08-25T04:13:06.015Z,21.90
2022-08-25T04:16:14.606Z,21.80
2022-08-25T04:19:19.549Z,21.80
2022-08-25T04:22:24.569Z,21.80
2022-08-25T04:25:29.871Z,21.80
2022-08-25T04:28:37.399Z,21.70
2022-08-25T04:31:44.412Z,21.70
2022-08-25T04:34:49.457Z,21.70
2022-08-25T04:37:54.345Z,21.60
2022-08-25T04:41:00.214Z,21.60
2022-08-25T04:44:08.114Z,21.70
2022-08-25T04:47:13.056Z,21.60
2022-08-25T04:50:18.003Z,21.60
2022-08-25T04:53:22.934Z,21.60
2022-08-25T04:56:28.298Z,21.60
2022-08-25T04:59:35.858Z,21.50
2022-08-25T05:02:40.781Z,21.50
2022-08-25T05:05:45.752Z,21.50
2022-08-25T05:08:51.473Z,21.40
2022-08-25T05:11:56.701Z,21.40
2022-08-25T05:15:24.181Z,21.40
2022-08-25T05:18:30.830Z,21.40
2022-08-25T05:21:37.221Z,21.30
2022-08-25T05:24:42.157Z,21.40
2022-08-25T05:27:47.175Z,21.30
2022-08-25T05:30:54.744Z,21.30
2022-08-25T05:34:01.019Z,21.30
2022-08-25T05:37:08.284Z,21.30
2022-08-25T05:40:17.222Z,21.30
2022-08-25T05:43:22.234Z,21.30
2022-08-25T05:46:31.962Z,21.30
2022-08-25T05:49:37.046Z,21.30
2022-08-25T05:52:42.178Z,21.30
2022-08-25T05:55:47.519Z,21.30
2022-08-25T05:58:52.934Z,21.30
2022-08-25T06:02:12.975Z,21.40
2022-08-25T06:05:20.517Z,21.40
2022-08-25T06:08:30.525Z,21.50
2022-08-25T06:11:35.534Z,21.50
2022-08-25T06:14:40.496Z,21.60
2022-08-25T06:17:48.474Z,21.70
2022-08-25T06:20:53.438Z,21.70
2022-08-25T06:23:58.374Z,21.80
2022-08-25T06:27:03.725Z,22.00
2022-08-25T06:30:11.656Z,22.10
2022-08-25T06:33:19.294Z,22.20
2022-08-25T06:36:24.464Z,22.40
2022-08-25T06:39:29.486Z,22.50
2022-08-25T06:42:34.891Z,22.60
2022-08-25T06:45:39.843Z,22.70
2022-08-25T06:48:47.639Z,22.90
2022-08-25T06:51:53.845Z,23.00
2022-08-25T06:54:58.878Z,23.10
2022-08-25T06:58:04.906Z,23.30
2022-08-25T07:01:15.906Z,23.50
2022-08-25T07:04:27.754Z,23.60
2022-08-25T07:07:44.030Z,23.80
2022-08-25T07:10:49.679Z,23.90
2022-08-25T07:13:54.681Z,24.20
2022-08-25T07:16:59.883Z,24.30
2022-08-25T07:20:08.404Z,24.50
2022-08-25T07:23:18.574Z,24.70
2022-08-25T07:26:37.232Z,24.80
2022-08-25T07:29:43.061Z,25.00
2022-08-25T07:32:48.082Z,25.10
2022-08-25T07:36:02.749Z,25.30
2022-08-25T07:39:07.853Z,25.40
2022-08-25T07:42:14.990Z,25.60
2022-08-25T07:45:25.513Z,25.70
2022-08-25T07:48:31.167Z,25.90
2022-08-25T07:51:38.721Z,26.00
2022-08-25T07:55:04.305Z,26.10
2022-08-25T07:58:10.951Z,26.30
2022-08-25T08:01:18.052Z,26.40
2022-08-25T08:04:23.537Z,26.60
2022-08-25T08:07:43.614Z,26.70
2022-08-25T08:11:04.097Z,26.80
2022-08-25T08:14:11.313Z,27.00
2022-08-25T08:17:16.400Z,27.10
2022-08-25T08:20:23.511Z,27.30
2022-08-25T08:23:31.423Z,27.50
2022-08-25T08:26:57.613Z,27.60
2022-08-25T08:30:01.435Z,27.80
2022-08-25T08:33:11.189Z,28.00
2022-08-25T08:36:16.762Z,28.20
2022-08-25T08:39:24.363Z,28.40
2022-08-25T08:42:47.369Z,28.60
2022-08-25T08:45:54.667Z,28.80
2022-08-25T08:49:04.815Z,29.00
2022-08-25T08:52:12.456Z,29.30
2022-08-25T08:55:28.013Z,29.40
2022-08-25T08:58:45.733Z,29.70
2022-08-25T09:01:59.414Z,29.80
2022-08-25T09:05:10.217Z,30.00
2022-08-25T09:08:20.416Z,30.20
2022-08-25T09:11:41.262Z,30.40
2022-08-25T09:14:57.328Z,30.60
2022-08-25T09:18:11.917Z,30.70
2022-08-25T09:21:22.649Z,30.90
2022-08-25T09:24:49.879Z,31.10
2022-08-25T09:28:09.585Z,31.40
2022-08-25T09:31:21.348Z,31.50
2022-08-25T09:34:31.128Z,31.70
2022-08-25T09:37:36.297Z,31.90
2022-08-25T09:40:44.730Z,32.00
2022-08-25T09:43:57.810Z,32.20
2022-08-25T09:47:08.096Z,32.30
2022-08-25T09:50:20.054Z,32.50
2022-08-25T09:53:25.831Z,32.60
2022-08-25T09:56:33.966Z,32.80
2022-08-25T09:59:41.645Z,32.90
2022-08-25T10:03:15.812Z,33.00
2022-08-25T10:06:20.820Z,33.20
2022-08-25T10:09:31.747Z,33.30
2022-08-25T10:12:43.203Z,33.40
2022-08-25T10:15:51.127Z,33.50
2022-08-25T10:19:10.036Z,33.60
2022-08-25T10:22:25.461Z,33.70
2022-08-25T10:25:33.850Z,33.80
2022-08-25T10:28:49.757Z,33.90
2022-08-25T10:32:00.618Z,34.00
2022-08-25T10:35:14.717Z,34.00
2022-08-25T10:38:43.166Z,34.20
2022-08-25T10:41:56.734Z,34.20
2022-08-25T10:45:32.133Z,34.30
2022-08-25T10:49:00.707Z,34.50
2022-08-25T10:52:13.863Z,34.60
2022-08-25T10:55:24.947Z,34.70
2022-08-25T10:58:59.845Z,34.70
2022-08-25T11:02:38.417Z,34.80
2022-08-25T11:05:55.224Z,34.90
2022-08-25T11:09:05.427Z,35.00
2022-08-25T11:12:16.716Z,35.00
2022-08-25T11:15:26.175Z,35.10
2022-08-25T11:18:34.018Z,35.10
2022-08-25T11:21:52.117Z,35.10
2022-08-25T11:25:05.915Z,35.10
2022-08-25T11:28:15.792Z,35.20
2022-08-25T11:31:24.036Z,35.30
2022-08-25T11:34:31.081Z,35.30
2022-08-25T11:37:45.733Z,35.40
2022-08-25T11:41:11.307Z,35.40
2022-08-25T11:44:51.834Z,35.50
2022-08-25T11:48:12.746Z,35.60
2022-08-25T11:51:36.558Z,35.60
2022-08-25T11:54:48.401Z,35.60
2022-08-25T11:57:55.989Z,35.70
2022-08-25T12:01:02.626Z,35.80
2022-08-25T12:04:16.184Z,35.80
2022-08-25T12:07:28.032Z,35.80
2022-08-25T12:10:57.062Z,35.90
2022-08-25T12:14:17.741Z,35.90
2022-08-25T12:17:26.920Z,36.00
2022-08-25T12:21:02.627Z,36.00
2022-08-25T12:24:19.497Z,36.10
2022-08-25T12:27:34.137Z,36.10
2022-08-25T12:30:50.596Z,36.10
2022-08-25T12:34:13.461Z,36.10
2022-08-25T12:37:21.132Z,36.10
2022-08-25T12:40:31.473Z,36.10
2022-08-25T12:43:42.568Z,36.10
2022-08-25T12:46:48.316Z,36.10
2022-08-25T12:49:54.675Z,36.00
2022-08-25T12:53:10.079Z,36.00
2022-08-25T12:56:24.836Z,36.10
2022-08-25T12:59:43.711Z,36.00
2022-08-25T13:03:15.997Z,36.00
2022-08-25T13:06:41.810Z,36.00
2022-08-25T13:10:10.570Z,36.00
2022-08-25T13:13:23.774Z,36.10
2022-08-25T13:16:33.882Z,36.10
2022-08-25T13:19:40.258Z,36.10
2022-08-25T13:22:50.307Z,36.10
2022-08-25T13:26:00.853Z,36.10
2022-08-25T13:29:17.885Z,36.10
2022-08-25T13:32:35.461Z,36.10
2022-08-25T13:35:40.527Z,36.10
2022-08-25T13:38:46.554Z,36.10
2022-08-25T13:41:55.480Z,36.10
2022-08-25T13:45:00.797Z,36.10
2022-08-25T13:48:21.183Z,36.10
2022-08-25T13:51:31.393Z,36.00
2022-08-25T13:54:41.202Z,36.00
2022-08-25T13:57:47.700Z,35.90
2022-08-25T14:01:22.380Z,35.90
2022-08-25T14:04:51.441Z,35.90
2022-08-25T14:08:15.635Z,35.80
2022-08-25T14:11:32.519Z,35.80
2022-08-25T14:14:37.860Z,35.80
2022-08-25T14:17:48.188Z,35.70
2022-08-25T14:20:58.262Z,35.70
2022-08-25T14:24:03.325Z,35.60
2022-08-25T14:27:08.739Z,35.60
2022-08-25T14:30:17.223Z,35.60
2022-08-25T14:33:40.195Z,35.60
2022-08-25T14:36:48.703Z,35.60
2022-08-25T14:39:54.757Z,35.50
2022-08-25T14:43:00.265Z,35.50
2022-08-25T14:46:15.731Z,35.50
2022-08-25T14:49:27.014Z,35.40
2022-08-25T14:52:34.539Z,35.40
2022-08-25T14:55:39.709Z,35.30
2022-08-25T14:58:51.108Z,35.30
2022-08-25T15:01:59.283Z,35.20
2022-08-25T15:05:08.710Z,35.20
2022-08-25T15:08:32.900Z,35.20
2022-08-25T15:11:38.800Z,35.10
2022-08-25T15:14:46.843Z,35.10
2022-08-25T15:17:51.779Z,35.10
2022-08-25T15:20:57.237Z,35.00
2022-08-25T15:24:04.948Z,35.00
2022-08-25T15:27:11.114Z,34.90
2022-08-25T15:30:17.298Z,34.90
2022-08-25T15:33:23.442Z,34.80
2022-08-25T15:36:29.545Z,34.80
2022-08-25T15:39:37.212Z,34.70
2022-08-25T15:42:42.894Z,34.60
2022-08-25T15:45:52.347Z,34.60
2022-08-25T15:48:58.201Z,34.60
2022-08-25T15:52:03.650Z,34.50
2022-08-25T15:55:13.326Z,34.40
2022-08-25T15:58:18.516Z,34.40
2022-08-25T16:01:26.711Z,34.30
2022-08-25T16:04:32.313Z,34.20
2022-08-25T16:07:37.584Z,34.20
2022-08-25T16:10:45.875Z,34.10
2022-08-25T16:13:52.331Z,34.00
2022-08-25T16:16:58.355Z,33.90
2022-08-25T16:20:04.949Z,33.90
2022-08-25T16:23:11.292Z,33.80
2022-08-25T16:26:19.311Z,33.70
2022-08-25T16:29:24.362Z,33.60
2022-08-25T16:32:29.405Z,33.50
2022-08-25T16:35:34.356Z,33.50
2022-08-25T16:38:42.443Z,33.40
2022-08-25T16:41:56.542Z,33.30
2022-08-25T16:45:01.783Z,33.20
2022-08-25T16:48:10.351Z,33.20
2022-08-25T16:51:19.415Z,33.10
2022-08-25T16:54:41.538Z,33.10
2022-08-25T16:57:53.565Z,33.00
2022-08-25T17:00:58.607Z,32.90
2022-08-25T17:04:04.985Z,32.90
2022-08-25T17:07:09.913Z,32.70
2022-08-25T17:10:14.928Z,32.70
2022-08-25T17:13:23.095Z,32.60
2022-08-25T17:16:31.582Z,32.50
2022-08-25T17:19:45.390Z,32.50
2022-08-25T17:22:50.922Z,32.40
2022-08-25T17:25:55.918Z,32.30
2022-08-25T17:29:04.874Z,32.20
2022-08-25T17:32:11.754Z,32.20
2022-08-25T17:35:19.486Z,32.10
2022-08-25T17:38:28.501Z,32.00
2022-08-25T17:41:33.650Z,32.00
2022-08-25T17:44:45.217Z,31.90
2022-08-25T17:47:50.714Z,31.90
2022-08-25T17:50:56.166Z,31.80
2022-08-25T17:54:01.270Z,31.70
2022-08-25T17:57:07.048Z,31.70
2022-08-25T18:00:17.164Z,31.60
2022-08-25T18:03:22.288Z,31.50
2022-08-25T18:06:29.597Z,31.40
2022-08-25T18:09:35.661Z,31.40
2022-08-25T18:12:41.413Z,31.30
2022-08-25T18:15:50.766Z,31.20
2022-08-25T18:18:57.494Z,31.20
2022-08-25T18:22:06.153Z,31.10
2022-08-25T18:25:14.878Z,31.00
2022-08-25T18:28:22.130Z,30.90
2022-08-25T18:31:30.122Z,30.90
2022-08-25T18:34:36.438Z,30.70
2022-08-25T18:37:53.925Z,30.70
2022-08-25T18:41:00.371Z,30.60
2022-08-25T18:44:06.567Z,30.50
2022-08-25T18:47:14.287Z,30.40
2022-08-25T18:50:19.867Z,30.30
2022-08-25T18:53:30.600Z,30.20
2022-08-25T18:56:42.625Z,30.10
2022-08-25T18:59:47.603Z,30.00
2022-08-25T19:02:57.947Z,29.90
2022-08-25T19:06:03.005Z,29.80
2022-08-25T19:09:07.957Z,29.70
2022-08-25T19:12:22.726Z,29.60
2022-08-25T19:15:28.663Z,29.50
2022-08-25T19:18:36.206Z,29.40
2022-08-25T19:21:41.629Z,29.40
2022-08-25T19:24:48.903Z,29.30
2022-08-25T19:27:55.062Z,29.20
2022-08-25T19:31:01.681Z,29.10
2022-08-25T19:34:12.644Z,29.00
2022-08-25T19:37:19.542Z,28.90
2022-08-25T19:40:28.187Z,28.80
2022-08-25T19:43:33.955Z,28.70
2022-08-25T19:46:40.833Z,28.60
2022-08-25T19:49:50.706Z,28.50
2022-08-25T19:52:55.792Z,28.50
2022-08-25T19:56:01.801Z,28.40
2022-08-25T19:59:07.112Z,28.30
2022-08-25T20:02:15.761Z,28.30
2022-08-25T20:05:24.207Z,28.20
2022-08-25T20:08:30.149Z,28.10
2022-08-25T20:11:35.474Z,28.00
2022-08-25T20:14:41.152Z,27.90
2022-08-25T20:17:46.752Z,27.90
2022-08-25T20:20:54.896Z,27.80
2022-08-25T20:24:14.993Z,27.80
2022-08-25T20:27:22.202Z,27.70
2022-08-25T20:30:29.254Z,27.60
2022-08-25T20:33:34.231Z,27.50
2022-08-25T20:36:50.122Z,27.40
2022-08-25T20:39:55.614Z,27.40
2022-08-25T20:43:03.315Z,27.30
2022-08-25T20:46:09.765Z,27.30
2022-08-25T20:49:15.317Z,27.20
2022-08-25T20:52:23.553Z,27.10
2022-08-25T20:55:29.921Z,27.00
2022-08-25T20:58:34.892Z,26.90
2022-08-25T21:01:42.385Z,26.90
2022-08-25T21:04:50.352Z,26.80
2022-08-25T21:07:58.098Z,26.70
2022-08-25T21:11:03.241Z,26.60
2022-08-25T21:14:10.540Z,26.60
2022-08-25T21:17:19.173Z,26.50
2022-08-25T21:20:26.415Z,26.40
2022-08-25T21:23:34.026Z,26.40
2022-08-25T21:26:48.841Z,26.30
2022-08-25T21:29:55.154Z,26.30
2022-08-25T21:33:00.329Z,26.20
2022-08-25T21:36:06.983Z,26.10
2022-08-25T21:39:16.763Z,26.10
2022-08-25T21:42:22.668Z,26.00
2022-08-25T21:45:27.657Z,26.00
2022-08-25T21:48:41.200Z,25.90
2022-08-25T21:51:50.969Z,25.90
2022-08-25T21:55:04.824Z,25.80
2022-08-25T21:58:10.650Z,25.70
2022-08-25T22:01:18.550Z,25.70
2022-08-25T22:04:24.182Z,25.60
2022-08-25T22:07:29.241Z,25.60
2022-08-25T22:10:47.735Z,25.50
2022-08-25T22:13:54.563Z,25.50
2022-08-25T22:17:01.710Z,25.50
2022-08-25T22:20:08.455Z,25.40
2022-08-25T22:23:20.474Z,25.30
2022-08-25T22:26:29.784Z,25.30
2022-08-25T22:29:34.695Z,25.30
2022-08-25T22:32:40.876Z,25.20
2022-08-25T22:35:45.843Z,25.20
2022-08-25T22:38:52.138Z,25.10
2022-08-25T22:42:00.359Z,25.10
2022-08-25T22:45:05.320Z,25.00
2022-08-25T22:48:10.348Z,25.00
2022-08-25T22:51:18.397Z,25.00
2022-08-25T22:54:25.301Z,24.90
2022-08-25T22:57:33.417Z,24.90
2022-08-25T23:00:41.604Z,24.90
2022-08-25T23:03:48.150Z,24.80
2022-08-25T23:06:53.224Z,24.80
2022-08-25T23:10:02.937Z,24.80
2022-08-25T23:13:10.797Z,24.70
2022-08-25T23:16:25.326Z,24.80
2022-08-25T23:19:31.340Z,24.70
2022-08-25T23:22:33.751Z,24.70
2022-08-25T23:25:42.819Z,24.60
2022-08-25T23:28:51.149Z,24.60
2022-08-25T23:31:56.597Z,24.60
2022-08-25T23:35:02.183Z,24.60
2022-08-25T23:38:07.450Z,24.60
2022-08-25T23:41:15.304Z,24.50
2022-08-25T23:44:25.673Z,24.50
2022-08-25T23:47:30.725Z,24.40
2022-08-25T23:50:42.047Z,24.40
2022-08-25T23:53:47.024Z,24.30
2022-08-25T23:56:52.744Z,24.30
